sensor_id;sensor_type;location;lat;lon;timestamp;temperature;humidity
28175;SHT30;59417;44.788;10.334;2024-02-21T00:01:27;10.41;66.71
28175;SHT30;59417;44.788;10.334;2024-02-21T00:04:00;10.40;66.59
28175;SHT30;59417;44.788;10.334;2024-02-21T00:06:31;10.40;67.24
28175;SHT30;59417;44.788;10.334;2024-02-21T00:09:06;10.34;66.35
28175;SHT30;59417;44.788;10.334;2024-02-21T00:11:38;10.43;65.66
28175;SHT30;59417;44.788;10.334;2024-02-21T00:14:08;10.40;65.52
28175;SHT30;59417;44.788;10.334;2024-02-21T00:16:43;10.06;66.58
28175;SHT30;59417;44.788;10.334;2024-02-21T00:19:10;9.92;67.20
28175;SHT30;59417;44.788;10.334;2024-02-21T00:21:37;9.93;67.42
28175;SHT30;59417;44.788;10.334;2024-02-21T00:24:04;9.81;67.86
28175;SHT30;59417;44.788;10.334;2024-02-21T00:26:31;9.92;67.99
28175;SHT30;59417;44.788;10.334;2024-02-21T00:28:59;10.02;67.24
28175;SHT30;59417;44.788;10.334;2024-02-21T00:31:25;10.19;66.79
28175;SHT30;59417;44.788;10.334;2024-02-21T00:33:54;10.13;65.58
28175;SHT30;59417;44.788;10.334;2024-02-21T00:36:20;9.93;66.82
28175;SHT30;59417;44.788;10.334;2024-02-21T00:38:47;9.89;67.27
28175;SHT30;59417;44.788;10.334;2024-02-21T00:41:14;9.92;67.50
28175;SHT30;59417;44.788;10.334;2024-02-21T00:43:41;9.98;67.28
28175;SHT30;59417;44.788;10.334;2024-02-21T00:46:08;10.03;67.15
28175;SHT30;59417;44.788;10.334;2024-02-21T00:48:56;9.98;67.04
28175;SHT30;59417;44.788;10.334;2024-02-21T00:51:22;10.10;66.68
28175;SHT30;59417;44.788;10.334;2024-02-21T00:53:47;10.08;66.79
28175;SHT30;59417;44.788;10.334;2024-02-21T00:56:14;10.34;65.78
28175;SHT30;59417;44.788;10.334;2024-02-21T00:58:40;10.06;65.20
28175;SHT30;59417;44.788;10.334;2024-02-21T01:01:13;10.05;66.25
28175;SHT30;59417;44.788;10.334;2024-02-21T01:03:42;9.82;67.05
28175;SHT30;59417;44.788;10.334;2024-02-21T01:06:09;9.89;66.48
28175;SHT30;59417;44.788;10.334;2024-02-21T01:08:39;9.75;66.73
28175;SHT30;59417;44.788;10.334;2024-02-21T01:11:08;9.76;66.98
28175;SHT30;59417;44.788;10.334;2024-02-21T01:13:36;9.65;67.44
28175;SHT30;59417;44.788;10.334;2024-02-21T01:16:05;9.55;67.77
28175;SHT30;59417;44.788;10.334;2024-02-21T01:18:33;9.68;67.66
28175;SHT30;59417;44.788;10.334;2024-02-21T01:21:01;9.68;67.21
28175;SHT30;59417;44.788;10.334;2024-02-21T01:23:34;9.82;67.23
28175;SHT30;59417;44.788;10.334;2024-02-21T01:26:07;9.70;67.68
28175;SHT30;59417;44.788;10.334;2024-02-21T01:28:41;9.59;67.72
28175;SHT30;59417;44.788;10.334;2024-02-21T01:31:09;9.42;68.47
28175;SHT30;59417;44.788;10.334;2024-02-21T01:33:41;9.30;68.43
28175;SHT30;59417;44.788;10.334;2024-02-21T01:38:58;9.35;69.21
28175;SHT30;59417;44.788;10.334;2024-02-21T01:41:29;9.49;68.91
28175;SHT30;59417;44.788;10.334;2024-02-21T01:43:58;9.59;68.47
28175;SHT30;59417;44.788;10.334;2024-02-21T01:49:30;9.75;67.62
28175;SHT30;59417;44.788;10.334;2024-02-21T01:52:02;9.62;67.94
28175;SHT30;59417;44.788;10.334;2024-02-21T01:54:35;9.45;68.40
28175;SHT30;59417;44.788;10.334;2024-02-21T01:57:07;9.68;68.66
28175;SHT30;59417;44.788;10.334;2024-02-21T01:59:37;9.34;68.97
28175;SHT30;59417;44.788;10.334;2024-02-21T02:02:11;9.28;68.61
28175;SHT30;59417;44.788;10.334;2024-02-21T02:04:40;9.08;69.45
28175;SHT30;59417;44.788;10.334;2024-02-21T02:07:09;9.11;69.48
28175;SHT30;59417;44.788;10.334;2024-02-21T02:09:38;9.17;69.86
28175;SHT30;59417;44.788;10.334;2024-02-21T02:12:06;9.15;69.76
28175;SHT30;59417;44.788;10.334;2024-02-21T02:14:43;9.38;67.98
28175;SHT30;59417;44.788;10.334;2024-02-21T02:17:10;9.38;68.42
28175;SHT30;59417;44.788;10.334;2024-02-21T02:19:49;9.17;69.54
28175;SHT30;59417;44.788;10.334;2024-02-21T02:22:21;9.23;68.96
28175;SHT30;59417;44.788;10.334;2024-02-21T02:24:48;9.27;68.58
28175;SHT30;59417;44.788;10.334;2024-02-21T02:27:15;9.23;68.59
28175;SHT30;59417;44.788;10.334;2024-02-21T02:29:45;9.14;68.98
28175;SHT30;59417;44.788;10.334;2024-02-21T02:32:33;9.00;69.46
28175;SHT30;59417;44.788;10.334;2024-02-21T02:35:01;9.14;69.10
28175;SHT30;59417;44.788;10.334;2024-02-21T02:37:35;8.97;70.10
28175;SHT30;59417;44.788;10.334;2024-02-21T02:40:07;8.84;69.83
28175;SHT30;59417;44.788;10.334;2024-02-21T02:42:34;8.73;70.36
28175;SHT30;59417;44.788;10.334;2024-02-21T02:45:01;8.81;70.11
28175;SHT30;59417;44.788;10.334;2024-02-21T02:47:26;8.83;69.79
28175;SHT30;59417;44.788;10.334;2024-02-21T02:49:53;8.93;69.78
28175;SHT30;59417;44.788;10.334;2024-02-21T02:52:20;8.76;70.31
28175;SHT30;59417;44.788;10.334;2024-02-21T02:54:47;8.80;69.92
28175;SHT30;59417;44.788;10.334;2024-02-21T02:57:18;8.70;70.20
28175;SHT30;59417;44.788;10.334;2024-02-21T02:59:52;8.70;70.23
28175;SHT30;59417;44.788;10.334;2024-02-21T03:02:31;9.24;69.37
28175;SHT30;59417;44.788;10.334;2024-02-21T03:05:21;8.80;69.79
28175;SHT30;59417;44.788;10.334;2024-02-21T03:07:51;8.73;69.78
28175;SHT30;59417;44.788;10.334;2024-02-21T03:10:18;8.48;70.53
28175;SHT30;59417;44.788;10.334;2024-02-21T03:12:51;8.46;70.61
28175;SHT30;59417;44.788;10.334;2024-02-21T03:15:20;8.43;70.65
28175;SHT30;59417;44.788;10.334;2024-02-21T03:17:53;8.50;70.96
28175;SHT30;59417;44.788;10.334;2024-02-21T03:20:25;8.62;70.56
28175;SHT30;59417;44.788;10.334;2024-02-21T03:22:51;8.72;70.32
28175;SHT30;59417;44.788;10.334;2024-02-21T03:25:17;8.64;70.00
28175;SHT30;59417;44.788;10.334;2024-02-21T03:27:42;8.35;70.87
28175;SHT30;59417;44.788;10.334;2024-02-21T03:30:08;8.45;70.59
28175;SHT30;59417;44.788;10.334;2024-02-21T03:32:34;8.57;70.09
28175;SHT30;59417;44.788;10.334;2024-02-21T03:34:59;8.62;69.84
28175;SHT30;59417;44.788;10.334;2024-02-21T03:37:24;8.46;70.61
28175;SHT30;59417;44.788;10.334;2024-02-21T03:39:50;8.46;70.92
28175;SHT30;59417;44.788;10.334;2024-02-21T03:42:15;8.49;71.11
28175;SHT30;59417;44.788;10.334;2024-02-21T03:44:41;8.63;70.91
28175;SHT30;59417;44.788;10.334;2024-02-21T03:47:06;8.59;70.47
28175;SHT30;59417;44.788;10.334;2024-02-21T03:49:35;8.57;70.43
28175;SHT30;59417;44.788;10.334;2024-02-21T03:52:01;8.59;70.45
28175;SHT30;59417;44.788;10.334;2024-02-21T03:54:27;8.77;69.89
28175;SHT30;59417;44.788;10.334;2024-02-21T03:56:52;8.29;71.20
28175;SHT30;59417;44.788;10.334;2024-02-21T03:59:18;8.24;71.46
28175;SHT30;59417;44.788;10.334;2024-02-21T04:01:43;8.18;71.72
28175;SHT30;59417;44.788;10.334;2024-02-21T04:04:12;8.29;71.75
28175;SHT30;59417;44.788;10.334;2024-02-21T04:06:45;8.41;71.27
28175;SHT30;59417;44.788;10.334;2024-02-21T04:09:11;8.39;70.79
28175;SHT30;59417;44.788;10.334;2024-02-21T04:11:36;8.48;71.44
28175;SHT30;59417;44.788;10.334;2024-02-21T04:14:02;8.29;71.90
28175;SHT30;59417;44.788;10.334;2024-02-21T04:16:30;8.33;71.77
28175;SHT30;59417;44.788;10.334;2024-02-21T04:18:55;8.41;71.49
28175;SHT30;59417;44.788;10.334;2024-02-21T04:21:21;8.64;70.52
28175;SHT30;59417;44.788;10.334;2024-02-21T04:23:46;8.67;70.10
28175;SHT30;59417;44.788;10.334;2024-02-21T04:26:14;8.66;69.46
28175;SHT30;59417;44.788;10.334;2024-02-21T04:28:39;8.86;69.71
28175;SHT30;59417;44.788;10.334;2024-02-21T04:31:05;8.31;70.92
28175;SHT30;59417;44.788;10.334;2024-02-21T04:33:32;8.28;70.76
28175;SHT30;59417;44.788;10.334;2024-02-21T04:35:58;8.18;70.76
28175;SHT30;59417;44.788;10.334;2024-02-21T04:38:24;8.33;70.30
28175;SHT30;59417;44.788;10.334;2024-02-21T04:40:50;8.31;70.75
28175;SHT30;59417;44.788;10.334;2024-02-21T04:43:15;8.20;71.26
28175;SHT30;59417;44.788;10.334;2024-02-21T04:45:41;8.05;71.14
28175;SHT30;59417;44.788;10.334;2024-02-21T04:48:06;8.05;71.27
28175;SHT30;59417;44.788;10.334;2024-02-21T04:50:34;7.90;71.42
28175;SHT30;59417;44.788;10.334;2024-02-21T04:53:13;7.95;71.42
28175;SHT30;59417;44.788;10.334;2024-02-21T04:55:38;7.93;71.35
28175;SHT30;59417;44.788;10.334;2024-02-21T04:58:05;8.38;69.60
28175;SHT30;59417;44.788;10.334;2024-02-21T05:00:31;8.50;68.96
28175;SHT30;59417;44.788;10.334;2024-02-21T05:02:56;8.35;69.68
28175;SHT30;59417;44.788;10.334;2024-02-21T05:05:22;8.50;68.78
28175;SHT30;59417;44.788;10.334;2024-02-21T05:07:47;8.57;68.08
28175;SHT30;59417;44.788;10.334;2024-02-21T05:10:12;8.52;68.16
28175;SHT30;59417;44.788;10.334;2024-02-21T05:12:38;8.57;67.78
28175;SHT30;59417;44.788;10.334;2024-02-21T05:15:05;8.59;67.96
28175;SHT30;59417;44.788;10.334;2024-02-21T05:17:32;8.64;67.95
28175;SHT30;59417;44.788;10.334;2024-02-21T05:19:59;8.72;67.55
28175;SHT30;59417;44.788;10.334;2024-02-21T05:22:28;8.41;68.40
28175;SHT30;59417;44.788;10.334;2024-02-21T05:24:55;8.74;68.43
28175;SHT30;59417;44.788;10.334;2024-02-21T05:27:21;8.81;67.39
28175;SHT30;59417;44.788;10.334;2024-02-21T05:29:47;8.46;68.29
28175;SHT30;59417;44.788;10.334;2024-02-21T05:32:13;8.50;67.80
28175;SHT30;59417;44.788;10.334;2024-02-21T05:34:39;8.42;67.98
28175;SHT30;59417;44.788;10.334;2024-02-21T05:37:05;8.43;68.46
28175;SHT30;59417;44.788;10.334;2024-02-21T05:39:30;8.25;69.08
28175;SHT30;59417;44.788;10.334;2024-02-21T05:41:55;8.17;69.91
28175;SHT30;59417;44.788;10.334;2024-02-21T05:44:21;8.14;70.39
28175;SHT30;59417;44.788;10.334;2024-02-21T05:46:47;8.25;70.50
28175;SHT30;59417;44.788;10.334;2024-02-21T05:49:13;8.25;70.21
28175;SHT30;59417;44.788;10.334;2024-02-21T05:51:43;8.17;70.31
28175;SHT30;59417;44.788;10.334;2024-02-21T05:54:08;8.07;70.47
28175;SHT30;59417;44.788;10.334;2024-02-21T05:56:34;8.21;70.34
28175;SHT30;59417;44.788;10.334;2024-02-21T05:59:01;8.26;69.63
28175;SHT30;59417;44.788;10.334;2024-02-21T06:01:28;8.26;69.67
28175;SHT30;59417;44.788;10.334;2024-02-21T06:03:53;8.15;69.88
28175;SHT30;59417;44.788;10.334;2024-02-21T06:06:19;8.04;70.15
28175;SHT30;59417;44.788;10.334;2024-02-21T06:08:47;8.02;70.64
28175;SHT30;59417;44.788;10.334;2024-02-21T06:11:12;8.12;70.77
28175;SHT30;59417;44.788;10.334;2024-02-21T06:13:40;8.24;70.36
28175;SHT30;59417;44.788;10.334;2024-02-21T06:16:06;8.29;70.20
28175;SHT30;59417;44.788;10.334;2024-02-21T06:18:42;8.35;69.82
28175;SHT30;59417;44.788;10.334;2024-02-21T06:21:08;8.36;69.67
28175;SHT30;59417;44.788;10.334;2024-02-21T06:23:36;8.32;69.57
28175;SHT30;59417;44.788;10.334;2024-02-21T06:26:03;8.32;69.81
28175;SHT30;59417;44.788;10.334;2024-02-21T06:28:30;8.43;68.91
28175;SHT30;59417;44.788;10.334;2024-02-21T06:30:58;8.38;69.38
28175;SHT30;59417;44.788;10.334;2024-02-21T06:33:24;8.00;70.56
28175;SHT30;59417;44.788;10.334;2024-02-21T06:35:53;7.78;71.00
28175;SHT30;59417;44.788;10.334;2024-02-21T06:38:19;7.71;71.55
28175;SHT30;59417;44.788;10.334;2024-02-21T06:40:48;7.87;71.70
28175;SHT30;59417;44.788;10.334;2024-02-21T06:43:18;7.84;71.71
28175;SHT30;59417;44.788;10.334;2024-02-21T06:45:45;8.00;71.08
28175;SHT30;59417;44.788;10.334;2024-02-21T06:48:19;8.00;70.95
28175;SHT30;59417;44.788;10.334;2024-02-21T06:50:46;8.07;70.53
28175;SHT30;59417;44.788;10.334;2024-02-21T06:53:16;7.95;71.24
28175;SHT30;59417;44.788;10.334;2024-02-21T06:55:43;8.04;71.27
28175;SHT30;59417;44.788;10.334;2024-02-21T06:58:11;7.87;71.87
28175;SHT30;59417;44.788;10.334;2024-02-21T07:00:38;7.91;71.56
28175;SHT30;59417;44.788;10.334;2024-02-21T07:03:04;7.87;71.61
28175;SHT30;59417;44.788;10.334;2024-02-21T07:05:31;7.97;71.62
28175;SHT30;59417;44.788;10.334;2024-02-21T07:07:59;8.04;71.33
28175;SHT30;59417;44.788;10.334;2024-02-21T07:10:26;8.01;71.43
28175;SHT30;59417;44.788;10.334;2024-02-21T07:12:55;8.14;70.93
28175;SHT30;59417;44.788;10.334;2024-02-21T07:15:21;8.14;70.91
28175;SHT30;59417;44.788;10.334;2024-02-21T07:18:02;8.12;70.87
28175;SHT30;59417;44.788;10.334;2024-02-21T07:20:28;8.20;71.08
28175;SHT30;59417;44.788;10.334;2024-02-21T07:22:54;8.41;70.91
28175;SHT30;59417;44.788;10.334;2024-02-21T07:25:20;8.54;71.03
28175;SHT30;59417;44.788;10.334;2024-02-21T07:27:47;8.60;70.54
28175;SHT30;59417;44.788;10.334;2024-02-21T07:30:13;8.64;70.02
28175;SHT30;59417;44.788;10.334;2024-02-21T07:32:39;8.81;69.94
28175;SHT30;59417;44.788;10.334;2024-02-21T07:35:05;9.03;69.82
28175;SHT30;59417;44.788;10.334;2024-02-21T07:37:31;9.10;69.75
28175;SHT30;59417;44.788;10.334;2024-02-21T07:39:57;9.21;69.30
28175;SHT30;59417;44.788;10.334;2024-02-21T07:42:23;9.31;68.89
28175;SHT30;59417;44.788;10.334;2024-02-21T07:44:52;9.37;68.80
28175;SHT30;59417;44.788;10.334;2024-02-21T07:47:19;9.44;68.55
28175;SHT30;59417;44.788;10.334;2024-02-21T07:49:46;9.48;68.38
28175;SHT30;59417;44.788;10.334;2024-02-21T07:52:20;9.72;67.22
28175;SHT30;59417;44.788;10.334;2024-02-21T07:54:46;9.72;66.67
28175;SHT30;59417;44.788;10.334;2024-02-21T07:57:16;9.78;66.37
28175;SHT30;59417;44.788;10.334;2024-02-21T07:59:47;9.70;66.62
28175;SHT30;59417;44.788;10.334;2024-02-21T08:02:24;9.85;66.78
28175;SHT30;59417;44.788;10.334;2024-02-21T08:04:55;10.21;63.61
28175;SHT30;59417;44.788;10.334;2024-02-21T08:07:26;10.19;63.59
28175;SHT30;59417;44.788;10.334;2024-02-21T08:09:56;10.23;64.46
28175;SHT30;59417;44.788;10.334;2024-02-21T08:12:23;10.24;64.00
28175;SHT30;59417;44.788;10.334;2024-02-21T08:14:52;10.30;64.26
28175;SHT30;59417;44.788;10.334;2024-02-21T08:17:22;10.31;63.83
28175;SHT30;59417;44.788;10.334;2024-02-21T08:19:48;10.36;64.25
28175;SHT30;59417;44.788;10.334;2024-02-21T08:22:18;10.43;63.90
28175;SHT30;59417;44.788;10.334;2024-02-21T08:24:50;10.52;64.15
28175;SHT30;59417;44.788;10.334;2024-02-21T08:27:35;10.44;64.58
28175;SHT30;59417;44.788;10.334;2024-02-21T08:30:10;10.54;65.22
28175;SHT30;59417;44.788;10.334;2024-02-21T08:32:48;10.60;65.49
28175;SHT30;59417;44.788;10.334;2024-02-21T08:35:15;10.71;65.19
28175;SHT30;59417;44.788;10.334;2024-02-21T08:37:48;10.67;65.48
28175;SHT30;59417;44.788;10.334;2024-02-21T08:40:14;10.92;63.96
28175;SHT30;59417;44.788;10.334;2024-02-21T08:42:44;11.04;63.86
28175;SHT30;59417;44.788;10.334;2024-02-21T08:45:10;10.94;63.72
28175;SHT30;59417;44.788;10.334;2024-02-21T08:47:36;11.02;64.00
28175;SHT30;59417;44.788;10.334;2024-02-21T08:50:10;10.96;64.92
28175;SHT30;59417;44.788;10.334;2024-02-21T08:52:37;10.99;64.14
28175;SHT30;59417;44.788;10.334;2024-02-21T08:55:04;11.18;63.45
28175;SHT30;59417;44.788;10.334;2024-02-21T08:57:30;11.02;63.92
28175;SHT30;59417;44.788;10.334;2024-02-21T09:00:04;11.25;64.31
28175;SHT30;59417;44.788;10.334;2024-02-21T09:02:39;11.42;63.21
28175;SHT30;59417;44.788;10.334;2024-02-21T09:05:10;11.46;63.58
28175;SHT30;59417;44.788;10.334;2024-02-21T09:07:40;11.52;63.48
28175;SHT30;59417;44.788;10.334;2024-02-21T09:10:09;11.57;63.91
28175;SHT30;59417;44.788;10.334;2024-02-21T09:12:36;11.71;63.24
28175;SHT30;59417;44.788;10.334;2024-02-21T09:15:03;11.80;63.83
28175;SHT30;59417;44.788;10.334;2024-02-21T09:17:32;11.76;63.55
28175;SHT30;59417;44.788;10.334;2024-02-21T09:19:59;11.69;63.84
28175;SHT30;59417;44.788;10.334;2024-02-21T09:22:31;11.83;64.19
28175;SHT30;59417;44.788;10.334;2024-02-21T09:25:00;11.97;64.08
28175;SHT30;59417;44.788;10.334;2024-02-21T09:27:27;12.24;62.74
28175;SHT30;59417;44.788;10.334;2024-02-21T09:29:58;12.18;63.60
28175;SHT30;59417;44.788;10.334;2024-02-21T09:32:25;12.25;62.88
28175;SHT30;59417;44.788;10.334;2024-02-21T09:34:52;12.29;63.07
28175;SHT30;59417;44.788;10.334;2024-02-21T09:37:20;12.52;64.06
28175;SHT30;59417;44.788;10.334;2024-02-21T09:39:47;12.66;62.41
28175;SHT30;59417;44.788;10.334;2024-02-21T09:42:13;12.80;62.08
28175;SHT30;59417;44.788;10.334;2024-02-21T09:44:39;12.92;61.53
28175;SHT30;59417;44.788;10.334;2024-02-21T09:49:35;12.95;61.29
28175;SHT30;59417;44.788;10.334;2024-02-21T09:52:05;13.21;60.67
28175;SHT30;59417;44.788;10.334;2024-02-21T09:54:33;13.34;59.47
28175;SHT30;59417;44.788;10.334;2024-02-21T09:57:00;13.40;59.83
28175;SHT30;59417;44.788;10.334;2024-02-21T09:59:30;13.45;60.06
28175;SHT30;59417;44.788;10.334;2024-02-21T10:01:56;13.53;61.21
28175;SHT30;59417;44.788;10.334;2024-02-21T10:04:23;13.23;60.36
28175;SHT30;59417;44.788;10.334;2024-02-21T10:06:49;13.37;60.55
28175;SHT30;59417;44.788;10.334;2024-02-21T10:09:25;13.43;60.18
28175;SHT30;59417;44.788;10.334;2024-02-21T10:11:53;13.54;60.64
28175;SHT30;59417;44.788;10.334;2024-02-21T10:14:20;13.79;59.89
28175;SHT30;59417;44.788;10.334;2024-02-21T10:16:48;13.82;60.30
28175;SHT30;59417;44.788;10.334;2024-02-21T10:19:18;13.92;60.59
28175;SHT30;59417;44.788;10.334;2024-02-21T10:21:58;14.22;59.50
28175;SHT30;59417;44.788;10.334;2024-02-21T10:24:27;14.23;58.67
28175;SHT30;59417;44.788;10.334;2024-02-21T10:26:58;14.36;58.99
28175;SHT30;59417;44.788;10.334;2024-02-21T10:29:24;14.61;57.58
28175;SHT30;59417;44.788;10.334;2024-02-21T10:31:50;14.44;56.90
28175;SHT30;59417;44.788;10.334;2024-02-21T10:34:21;14.27;58.31
28175;SHT30;59417;44.788;10.334;2024-02-21T10:37:41;14.30;59.39
28175;SHT30;59417;44.788;10.334;2024-02-21T10:40:27;14.30;58.36
28175;SHT30;59417;44.788;10.334;2024-02-21T10:43:15;14.44;58.07
28175;SHT30;59417;44.788;10.334;2024-02-21T10:45:51;14.64;58.08
28175;SHT30;59417;44.788;10.334;2024-02-21T10:48:28;14.92;57.78
28175;SHT30;59417;44.788;10.334;2024-02-21T10:51:08;15.12;57.65
28175;SHT30;59417;44.788;10.334;2024-02-21T10:59:07;14.70;59.10
28175;SHT30;59417;44.788;10.334;2024-02-21T11:01:40;14.61;59.58
28175;SHT30;59417;44.788;10.334;2024-02-21T11:04:10;14.43;59.67
28175;SHT30;59417;44.788;10.334;2024-02-21T11:06:46;14.78;60.26
28175;SHT30;59417;44.788;10.334;2024-02-21T11:09:14;15.04;61.37
28175;SHT30;59417;44.788;10.334;2024-02-21T11:11:42;15.22;59.51
28175;SHT30;59417;44.788;10.334;2024-02-21T11:14:20;15.41;59.07
28175;SHT30;59417;44.788;10.334;2024-02-21T11:16:48;14.95;59.38
28175;SHT30;59417;44.788;10.334;2024-02-21T11:19:21;14.84;59.80
28175;SHT30;59417;44.788;10.334;2024-02-21T11:21:56;14.85;60.16
28175;SHT30;59417;44.788;10.334;2024-02-21T11:24:27;15.12;59.85
28175;SHT30;59417;44.788;10.334;2024-02-21T11:26:56;14.85;60.00
28175;SHT30;59417;44.788;10.334;2024-02-21T11:29:25;15.05;60.59
28175;SHT30;59417;44.788;10.334;2024-02-21T11:31:55;15.34;61.53
28175;SHT30;59417;44.788;10.334;2024-02-21T11:34:21;15.58;60.58
28175;SHT30;59417;44.788;10.334;2024-02-21T11:36:52;15.87;59.12
28175;SHT30;59417;44.788;10.334;2024-02-21T11:42:04;15.73;58.45
28175;SHT30;59417;44.788;10.334;2024-02-21T11:44:35;15.42;58.46
28175;SHT30;59417;44.788;10.334;2024-02-21T11:47:20;15.48;59.40
28175;SHT30;59417;44.788;10.334;2024-02-21T11:49:50;15.36;59.03
28175;SHT30;59417;44.788;10.334;2024-02-21T11:55:15;15.76;58.72
28175;SHT30;59417;44.788;10.334;2024-02-21T11:57:47;15.97;58.25
28175;SHT30;59417;44.788;10.334;2024-02-21T12:00:21;15.93;58.29
28175;SHT30;59417;44.788;10.334;2024-02-21T12:03:04;15.77;58.55
28175;SHT30;59417;44.788;10.334;2024-02-21T12:05:47;15.39;59.82
28175;SHT30;59417;44.788;10.334;2024-02-21T12:08:13;15.56;59.38
28175;SHT30;59417;44.788;10.334;2024-02-21T12:14:02;15.69;59.92
28175;SHT30;59417;44.788;10.334;2024-02-21T12:16:34;15.98;60.08
28175;SHT30;59417;44.788;10.334;2024-02-21T12:20:03;16.16;59.03
28175;SHT30;59417;44.788;10.334;2024-02-21T12:22:49;16.42;60.59
28175;SHT30;59417;44.788;10.334;2024-02-21T12:25:16;16.45;57.66
28175;SHT30;59417;44.788;10.334;2024-02-21T12:31:24;16.13;59.54
28175;SHT30;59417;44.788;10.334;2024-02-21T12:33:55;16.33;59.63
28175;SHT30;59417;44.788;10.334;2024-02-21T12:36:22;16.45;58.13
28175;SHT30;59417;44.788;10.334;2024-02-21T12:38:48;16.48;59.56
28175;SHT30;59417;44.788;10.334;2024-02-21T12:41:22;16.24;58.00
28175;SHT30;59417;44.788;10.334;2024-02-21T12:44:26;16.37;59.48
28175;SHT30;59417;44.788;10.334;2024-02-21T12:46:54;16.54;60.46
28175;SHT30;59417;44.788;10.334;2024-02-21T12:49:20;16.75;59.66
28175;SHT30;59417;44.788;10.334;2024-02-21T12:51:46;16.99;57.59
28175;SHT30;59417;44.788;10.334;2024-02-21T12:54:14;17.13;58.59
28175;SHT30;59417;44.788;10.334;2024-02-21T12:56:42;17.17;56.83
28175;SHT30;59417;44.788;10.334;2024-02-21T12:59:09;17.29;58.06
28175;SHT30;59417;44.788;10.334;2024-02-21T13:01:37;17.36;56.17
28175;SHT30;59417;44.788;10.334;2024-02-21T13:04:03;17.31;56.80
28175;SHT30;59417;44.788;10.334;2024-02-21T13:06:28;17.34;56.57
28175;SHT30;59417;44.788;10.334;2024-02-21T13:08:54;17.43;55.91
28175;SHT30;59417;44.788;10.334;2024-02-21T13:11:20;17.37;57.42
28175;SHT30;59417;44.788;10.334;2024-02-21T13:13:47;17.34;57.26
28175;SHT30;59417;44.788;10.334;2024-02-21T13:16:13;17.47;57.23
28175;SHT30;59417;44.788;10.334;2024-02-21T13:18:39;17.55;56.12
28175;SHT30;59417;44.788;10.334;2024-02-21T13:21:05;17.58;55.92
28175;SHT30;59417;44.788;10.334;2024-02-21T13:23:31;17.63;56.82
28175;SHT30;59417;44.788;10.334;2024-02-21T13:26:01;17.71;55.59
28175;SHT30;59417;44.788;10.334;2024-02-21T13:28:28;17.39;55.57
28175;SHT30;59417;44.788;10.334;2024-02-21T13:30:56;17.31;55.51
28175;SHT30;59417;44.788;10.334;2024-02-21T13:33:25;16.98;56.76
28175;SHT30;59417;44.788;10.334;2024-02-21T13:35:52;17.06;57.78
28175;SHT30;59417;44.788;10.334;2024-02-21T13:38:18;17.13;57.49
28175;SHT30;59417;44.788;10.334;2024-02-21T13:40:44;17.15;57.39
28175;SHT30;59417;44.788;10.334;2024-02-21T13:43:11;17.29;56.80
28175;SHT30;59417;44.788;10.334;2024-02-21T13:45:37;17.36;57.78
28175;SHT30;59417;44.788;10.334;2024-02-21T13:48:03;17.43;56.24
28175;SHT30;59417;44.788;10.334;2024-02-21T13:50:32;17.40;57.23
28175;SHT30;59417;44.788;10.334;2024-02-21T13:52:59;17.20;56.75
28175;SHT30;59417;44.788;10.334;2024-02-21T13:55:26;17.24;56.85
28175;SHT30;59417;44.788;10.334;2024-02-21T13:57:52;17.20;57.32
28175;SHT30;59417;44.788;10.334;2024-02-21T14:00:18;17.36;55.84
28175;SHT30;59417;44.788;10.334;2024-02-21T14:02:46;17.19;55.54
28175;SHT30;59417;44.788;10.334;2024-02-21T14:05:14;17.17;55.89
28175;SHT30;59417;44.788;10.334;2024-02-21T14:07:40;17.05;57.37
28175;SHT30;59417;44.788;10.334;2024-02-21T14:10:10;17.03;56.37
28175;SHT30;59417;44.788;10.334;2024-02-21T14:12:36;17.02;57.33
28175;SHT30;59417;44.788;10.334;2024-02-21T14:15:02;17.03;57.44
28175;SHT30;59417;44.788;10.334;2024-02-21T14:17:27;17.10;57.63
28175;SHT30;59417;44.788;10.334;2024-02-21T14:19:54;17.03;56.62
28175;SHT30;59417;44.788;10.334;2024-02-21T14:22:20;17.12;56.87
28175;SHT30;59417;44.788;10.334;2024-02-21T14:24:47;17.22;56.61
28175;SHT30;59417;44.788;10.334;2024-02-21T14:27:13;17.27;55.52
28175;SHT30;59417;44.788;10.334;2024-02-21T14:29:40;17.20;55.83
28175;SHT30;59417;44.788;10.334;2024-02-21T14:32:06;17.12;56.09
28175;SHT30;59417;44.788;10.334;2024-02-21T14:34:33;17.09;56.83
28175;SHT30;59417;44.788;10.334;2024-02-21T14:36:58;17.17;56.81
28175;SHT30;59417;44.788;10.334;2024-02-21T14:39:24;17.12;56.45
28175;SHT30;59417;44.788;10.334;2024-02-21T14:41:52;17.03;55.89
28175;SHT30;59417;44.788;10.334;2024-02-21T14:44:18;17.02;56.74
28175;SHT30;59417;44.788;10.334;2024-02-21T14:46:47;16.95;57.77
28175;SHT30;59417;44.788;10.334;2024-02-21T14:49:13;17.03;57.91
28175;SHT30;59417;44.788;10.334;2024-02-21T14:51:45;17.08;58.22
28175;SHT30;59417;44.788;10.334;2024-02-21T14:54:11;17.17;58.49
28175;SHT30;59417;44.788;10.334;2024-02-21T14:56:38;17.16;58.76
28175;SHT30;59417;44.788;10.334;2024-02-21T14:59:07;17.24;58.54
28175;SHT30;59417;44.788;10.334;2024-02-21T15:01:36;17.30;57.69
28175;SHT30;59417;44.788;10.334;2024-02-21T15:04:05;17.19;57.41
28175;SHT30;59417;44.788;10.334;2024-02-21T15:06:32;17.13;57.87
28175;SHT30;59417;44.788;10.334;2024-02-21T15:09:03;17.22;57.41
28175;SHT30;59417;44.788;10.334;2024-02-21T15:11:33;17.20;57.70
28175;SHT30;59417;44.788;10.334;2024-02-21T15:14:00;17.02;58.14
28175;SHT30;59417;44.788;10.334;2024-02-21T15:16:29;16.99;57.97
28175;SHT30;59417;44.788;10.334;2024-02-21T15:18:56;16.95;57.60
28175;SHT30;59417;44.788;10.334;2024-02-21T15:21:22;16.94;58.08
28175;SHT30;59417;44.788;10.334;2024-02-21T15:23:48;16.79;58.33
28175;SHT30;59417;44.788;10.334;2024-02-21T15:26:16;16.64;59.04
28175;SHT30;59417;44.788;10.334;2024-02-21T15:28:43;16.57;59.08
28175;SHT30;59417;44.788;10.334;2024-02-21T15:31:18;16.59;59.24
28175;SHT30;59417;44.788;10.334;2024-02-21T15:33:45;16.52;58.82
28175;SHT30;59417;44.788;10.334;2024-02-21T15:36:11;16.41;59.84
28175;SHT30;59417;44.788;10.334;2024-02-21T15:38:38;16.33;59.14
28175;SHT30;59417;44.788;10.334;2024-02-21T15:41:04;16.35;59.60
28175;SHT30;59417;44.788;10.334;2024-02-21T15:43:31;16.34;60.04
28175;SHT30;59417;44.788;10.334;2024-02-21T15:45:57;16.37;59.80
28175;SHT30;59417;44.788;10.334;2024-02-21T15:48:26;16.24;60.83
28175;SHT30;59417;44.788;10.334;2024-02-21T15:50:54;16.30;59.89
28175;SHT30;59417;44.788;10.334;2024-02-21T15:53:22;16.16;60.42
28175;SHT30;59417;44.788;10.334;2024-02-21T15:55:51;16.17;60.59
28175;SHT30;59417;44.788;10.334;2024-02-21T15:58:19;16.12;60.58
28175;SHT30;59417;44.788;10.334;2024-02-21T16:00:48;16.12;60.78